createdAt,value
2022-12-22T00:00:25.360Z,1.81
2022-12-22T00:03:16.054Z,1.73
2022-12-22T00:06:06.742Z,1.66
2022-12-22T00:09:03.574Z,1.79
2022-12-22T00:11:56.017Z,1.78
2022-12-22T00:14:46.714Z,1.87
2022-12-22T00:17:45.600Z,1.87
2022-12-22T00:20:38.672Z,1.85
2022-12-22T00:23:29.734Z,1.89
2022-12-22T00:26:20.312Z,1.81
2022-12-22T00:29:11.004Z,1.86
2022-12-22T00:32:02.829Z,1.88
2022-12-22T00:35:01.639Z,1.78
2022-12-22T00:37:56.726Z,1.94
2022-12-22T00:40:47.656Z,1.83
2022-12-22T00:43:37.909Z,1.86
2022-12-22T00:46:30.939Z,1.82
2022-12-22T00:49:21.709Z,1.82
2022-12-22T00:52:12.453Z,1.91
2022-12-22T00:55:03.093Z,1.89
2022-12-22T00:57:54.439Z,1.76
2022-12-22T01:00:45.174Z,1.78
2022-12-22T01:03:35.804Z,1.86
2022-12-22T01:06:29.636Z,1.84
2022-12-22T01:09:20.377Z,1.66
2022-12-22T01:12:10.889Z,1.72
2022-12-22T01:15:01.549Z,1.82
2022-12-22T01:17:51.907Z,1.75
2022-12-22T01:20:42.640Z,1.87
2022-12-22T01:23:33.341Z,1.84
2022-12-22T01:26:27.970Z,1.93
2022-12-22T01:29:18.769Z,1.85
2022-12-22T01:32:09.224Z,1.88
2022-12-22T01:35:00.532Z,1.90
2022-12-22T01:37:51.256Z,1.75
2022-12-22T01:40:43.847Z,1.88
2022-12-22T01:43:46.621Z,1.92
2022-12-22T01:46:43.521Z,1.85
2022-12-22T01:49:37.276Z,1.85
2022-12-22T01:52:31.056Z,1.78
2022-12-22T01:55:26.806Z,1.86
2022-12-22T01:58:17.326Z,1.86
2022-12-22T02:01:08.656Z,1.83
2022-12-22T02:03:59.276Z,1.77
2022-12-22T02:07:00.463Z,1.90
2022-12-22T02:10:09.070Z,1.92
2022-12-22T02:13:22.632Z,1.89
2022-12-22T02:16:33.188Z,1.93
2022-12-22T02:19:33.985Z,1.84
2022-12-22T02:23:01.892Z,1.93
2022-12-22T02:26:16.553Z,1.86
2022-12-22T02:29:08.267Z,1.90
2022-12-22T02:32:00.575Z,1.88
2022-12-22T02:34:51.376Z,1.79
2022-12-22T02:37:50.667Z,1.79
2022-12-22T02:41:19.264Z,1.83
2022-12-22T02:44:35.387Z,1.93
2022-12-22T02:47:52.988Z,1.96
2022-12-22T02:51:06.036Z,1.87
2022-12-22T02:53:58.578Z,1.95
2022-12-22T02:56:49.250Z,1.80
2022-12-22T02:59:39.942Z,1.92
2022-12-22T03:02:32.039Z,1.99
2022-12-22T03:05:22.688Z,1.95
2022-12-22T03:08:14.004Z,1.95
2022-12-22T03:11:04.784Z,1.98
2022-12-22T03:13:55.694Z,2.05
2022-12-22T03:16:46.008Z,2.06
2022-12-22T03:19:36.813Z,1.98
2022-12-22T03:22:27.564Z,2.07
2022-12-22T03:25:18.288Z,1.95
2022-12-22T03:27:50.233Z,1.84
2022-12-22T03:30:22.123Z,1.93
2022-12-22T03:32:54.086Z,1.96
2022-12-22T03:35:26.164Z,1.98
2022-12-22T03:37:58.002Z,1.96
2022-12-22T03:40:31.436Z,2.10
2022-12-22T03:43:22.077Z,2.14
2022-12-22T03:46:15.885Z,2.05
2022-12-22T03:49:07.985Z,1.85
2022-12-22T03:51:45.341Z,1.96
2022-12-22T03:54:21.231Z,2.07
2022-12-22T03:56:54.203Z,2.15
2022-12-22T03:59:26.310Z,2.04
2022-12-22T04:01:58.679Z,1.99
2022-12-22T04:04:34.109Z,2.16
2022-12-22T04:07:06.053Z,2.02
2022-12-22T04:09:57.949Z,1.78
2022-12-22T04:12:48.625Z,1.67
2022-12-22T04:15:25.575Z,2.15
2022-12-22T04:17:58.597Z,2.05
2022-12-22T04:20:30.606Z,2.10
2022-12-22T04:23:02.797Z,2.19
2022-12-22T04:25:34.801Z,2.13
2022-12-22T04:28:06.770Z,2.20
2022-12-22T04:30:38.811Z,1.60
2022-12-22T04:33:10.787Z,2.23
2022-12-22T04:35:44.634Z,2.27
2022-12-22T04:38:16.633Z,2.16
2022-12-22T04:40:48.538Z,2.25
2022-12-22T04:43:20.505Z,2.24
2022-12-22T04:45:54.359Z,2.20
2022-12-22T04:48:28.237Z,2.22
2022-12-22T04:51:01.122Z,2.16
2022-12-22T04:53:33.221Z,1.75
2022-12-22T04:56:07.834Z,2.21
2022-12-22T04:58:39.796Z,2.12
2022-12-22T05:01:14.226Z,2.13
2022-12-22T05:03:46.829Z,2.22
2022-12-22T05:06:19.299Z,2.13
2022-12-22T05:08:51.435Z,2.28
2022-12-22T05:11:23.615Z,2.17
2022-12-22T05:13:55.729Z,2.31
2022-12-22T05:16:27.741Z,2.04
2022-12-22T05:18:59.716Z,2.27
2022-12-22T05:21:31.707Z,2.10
2022-12-22T05:24:04.276Z,1.82
2022-12-22T05:26:36.199Z,1.89
2022-12-22T05:29:08.157Z,2.17
2022-12-22T05:31:46.821Z,2.32
2022-12-22T05:34:19.225Z,2.19
2022-12-22T05:36:51.220Z,2.28
2022-12-22T05:39:23.212Z,1.93
2022-12-22T05:41:55.175Z,2.01
2022-12-22T05:44:27.177Z,1.82
2022-12-22T05:46:59.098Z,2.35
2022-12-22T05:49:31.108Z,1.52
2022-12-22T05:52:03.253Z,2.13
2022-12-22T05:54:35.326Z,2.28
2022-12-22T05:57:07.326Z,2.15
2022-12-22T05:59:39.374Z,2.34
2022-12-22T06:02:11.644Z,2.37
2022-12-22T06:04:43.674Z,2.16
2022-12-22T06:07:15.684Z,1.89
2022-12-22T06:09:47.637Z,1.87
2022-12-22T06:12:19.627Z,2.06
2022-12-22T06:14:52.043Z,2.24
2022-12-22T06:17:24.101Z,2.37
2022-12-22T06:19:56.104Z,2.28
2022-12-22T06:22:28.052Z,2.14
2022-12-22T06:25:00.265Z,2.23
2022-12-22T06:27:32.228Z,2.40
2022-12-22T06:30:04.809Z,2.45
2022-12-22T06:32:38.226Z,2.41
2022-12-22T06:35:10.921Z,2.40
2022-12-22T06:37:49.356Z,2.40
2022-12-22T06:40:21.389Z,2.43
2022-12-22T06:43:09.593Z,2.36
2022-12-22T06:45:44.116Z,2.45
2022-12-22T06:48:16.492Z,1.80
2022-12-22T06:50:48.640Z,2.33
2022-12-22T06:53:21.132Z,2.45
2022-12-22T06:55:54.610Z,2.40
2022-12-22T06:58:27.083Z,2.49
2022-12-22T07:00:59.489Z,2.37
2022-12-22T07:03:31.558Z,2.49
2022-12-22T07:06:04.783Z,2.42
2022-12-22T07:08:36.836Z,1.88
2022-12-22T07:11:13.757Z,2.56
2022-12-22T07:13:46.537Z,2.60
2022-12-22T07:16:20.329Z,2.59
2022-12-22T07:18:52.572Z,2.58
2022-12-22T07:21:26.693Z,2.66
2022-12-22T07:23:58.782Z,2.52
2022-12-22T07:26:31.003Z,2.66
2022-12-22T07:29:02.950Z,2.60
2022-12-22T07:31:35.431Z,2.49
2022-12-22T07:34:07.709Z,2.19
2022-12-22T07:36:39.939Z,2.79
2022-12-22T07:39:12.993Z,2.76
2022-12-22T07:42:03.489Z,2.76
2022-12-22T07:44:35.462Z,2.72
2022-12-22T07:47:07.405Z,2.62
2022-12-22T07:49:58.097Z,2.63
2022-12-22T07:52:30.019Z,2.43
2022-12-22T07:55:01.953Z,1.99
2022-12-22T07:57:36.200Z,2.44
2022-12-22T08:00:08.904Z,2.53
2022-12-22T08:02:41.142Z,2.59
2022-12-22T08:05:13.262Z,2.69
2022-12-22T08:07:45.571Z,2.15
2022-12-22T08:10:18.839Z,2.86
2022-12-22T08:12:51.283Z,2.65
2022-12-22T08:15:23.250Z,2.76
2022-12-22T08:17:55.173Z,2.70
2022-12-22T08:20:27.201Z,2.84
2022-12-22T08:22:59.964Z,2.81
2022-12-22T08:25:34.643Z,2.54
2022-12-22T08:28:06.746Z,2.66
2022-12-22T08:30:38.925Z,2.75
2022-12-22T08:33:10.893Z,2.70
2022-12-22T08:35:43.830Z,2.55
2022-12-22T08:38:15.864Z,2.58
2022-12-22T08:40:48.508Z,2.69
2022-12-22T08:43:22.188Z,2.55
2022-12-22T08:45:54.297Z,2.67
2022-12-22T08:48:26.267Z,2.54
2022-12-22T08:50:58.823Z,2.66
2022-12-22T08:54:03.251Z,2.68
2022-12-22T08:56:22.713Z,2.76
2022-12-22T08:58:54.617Z,2.74
2022-12-22T09:01:26.738Z,2.79
2022-12-22T09:03:59.339Z,2.99
2022-12-22T09:06:38.340Z,2.51
2022-12-22T09:09:14.153Z,3.35
2022-12-22T09:11:46.424Z,3.32
2022-12-22T09:14:20.597Z,3.55
2022-12-22T09:16:52.653Z,3.41
2022-12-22T09:19:24.842Z,3.59
2022-12-22T09:21:57.167Z,3.44
2022-12-22T09:24:29.311Z,3.66
2022-12-22T09:27:03.768Z,3.58
2022-12-22T09:29:38.339Z,3.83
2022-12-22T09:32:10.359Z,3.55
2022-12-22T09:34:42.312Z,3.60
2022-12-22T09:37:16.077Z,4.00
2022-12-22T09:39:48.768Z,4.13
2022-12-22T09:42:21.987Z,4.18
2022-12-22T09:44:54.034Z,4.13
2022-12-22T09:47:36.382Z,4.18
2022-12-22T09:50:16.238Z,4.14
2022-12-22T09:52:51.428Z,3.98
2022-12-22T09:55:26.378Z,4.10
2022-12-22T09:57:58.390Z,4.01
2022-12-22T10:00:30.489Z,4.08
2022-12-22T10:03:27.914Z,4.09
2022-12-22T10:06:11.062Z,4.10
2022-12-22T10:08:43.461Z,3.59
2022-12-22T10:11:18.165Z,4.10
2022-12-22T10:13:50.120Z,3.92
2022-12-22T10:16:27.888Z,4.03
2022-12-22T10:19:12.628Z,4.04
2022-12-22T10:21:47.165Z,4.01
2022-12-22T10:24:28.778Z,4.09
2022-12-22T10:27:01.976Z,4.26
2022-12-22T10:29:34.822Z,4.06
2022-12-22T10:32:16.767Z,4.05
2022-12-22T10:35:18.069Z,4.25
2022-12-22T10:37:50.024Z,4.08
2022-12-22T10:40:23.282Z,4.21
2022-12-22T10:42:57.788Z,4.16
2022-12-22T10:45:29.905Z,4.10
2022-12-22T10:48:02.128Z,4.03
2022-12-22T10:50:34.172Z,4.34
2022-12-22T10:53:06.729Z,4.43
2022-12-22T10:55:39.657Z,4.29
2022-12-22T10:58:11.628Z,4.44
2022-12-22T11:00:45.255Z,4.37
2022-12-22T11:03:31.362Z,4.41
2022-12-22T11:06:13.053Z,4.55
2022-12-22T11:08:51.284Z,4.54
2022-12-22T11:11:38.216Z,4.56
2022-12-22T11:14:15.752Z,4.62
2022-12-22T11:16:52.846Z,4.48
2022-12-22T11:19:46.391Z,4.52
2022-12-22T11:22:46.033Z,4.59
2022-12-22T11:25:37.246Z,4.58
2022-12-22T11:28:12.125Z,4.54
2022-12-22T11:30:55.497Z,4.71
2022-12-22T11:33:42.533Z,4.79
2022-12-22T11:36:34.655Z,4.68
2022-12-22T11:39:16.719Z,4.67
2022-12-22T11:42:11.428Z,4.60
2022-12-22T11:45:09.608Z,4.54
2022-12-22T11:47:51.179Z,4.54
2022-12-22T11:51:00.709Z,4.49
2022-12-22T11:54:15.497Z,4.68
2022-12-22T11:56:55.775Z,4.69
2022-12-22T11:59:58.689Z,4.49
2022-12-22T12:02:59.479Z,4.60
2022-12-22T12:06:02.678Z,4.64
2022-12-22T12:08:34.799Z,4.60
2022-12-22T12:11:09.732Z,4.57
2022-12-22T12:13:47.795Z,4.57
2022-12-22T12:16:35.413Z,4.57
2022-12-22T12:19:31.923Z,4.55
2022-12-22T12:22:05.831Z,4.54
2022-12-22T12:25:11.854Z,4.51
2022-12-22T12:28:04.883Z,4.43
2022-12-22T12:30:52.633Z,4.31
2022-12-22T12:33:48.429Z,4.25
2022-12-22T12:36:32.389Z,4.38
2022-12-22T12:39:19.735Z,4.36
2022-12-22T12:42:29.130Z,4.34
2022-12-22T12:45:02.988Z,4.21
2022-12-22T12:47:36.803Z,4.22
2022-12-22T12:50:32.008Z,4.25
2022-12-22T12:53:08.281Z,4.29
2022-12-22T12:55:40.216Z,4.22
2022-12-22T12:58:34.973Z,4.20
2022-12-22T13:01:12.726Z,4.22
2022-12-22T13:04:05.285Z,4.18
2022-12-22T13:06:49.971Z,4.07
2022-12-22T13:12:55.288Z,4.03
2022-12-22T13:15:29.556Z,3.65
2022-12-22T13:18:03.998Z,3.78
2022-12-22T13:20:37.982Z,3.94
2022-12-22T13:23:15.785Z,3.88
2022-12-22T13:25:53.481Z,3.70
2022-12-22T13:28:27.461Z,3.86
2022-12-22T13:31:05.672Z,3.77
2022-12-22T13:33:40.690Z,3.82
2022-12-22T13:36:22.392Z,3.80
2022-12-22T13:39:02.686Z,3.23
2022-12-22T13:41:35.054Z,3.76
2022-12-22T13:44:10.801Z,3.86
2022-12-22T13:46:43.526Z,3.81
2022-12-22T13:49:36.144Z,3.81
2022-12-22T13:52:15.416Z,3.77
2022-12-22T13:54:47.899Z,3.72
2022-12-22T13:57:22.378Z,3.78
2022-12-22T13:59:55.442Z,3.74
2022-12-22T14:02:33.657Z,3.83
2022-12-22T14:05:11.855Z,3.81
2022-12-22T14:08:04.023Z,3.82
2022-12-22T14:10:44.134Z,3.68
2022-12-22T14:13:22.795Z,3.81
2022-12-22T14:16:05.901Z,3.65
2022-12-22T14:18:38.710Z,3.56
2022-12-22T14:21:12.362Z,3.72
2022-12-22T14:23:44.529Z,3.54
2022-12-22T14:26:24.264Z,3.64
2022-12-22T14:28:57.313Z,3.70
2022-12-22T14:31:29.555Z,3.58
2022-12-22T14:34:05.654Z,3.31
2022-12-22T14:36:46.316Z,3.58
2022-12-22T14:39:24.151Z,3.53
2022-12-22T14:41:59.026Z,3.54
2022-12-22T14:44:34.619Z,3.43
2022-12-22T14:47:13.115Z,3.37
2022-12-22T14:50:05.140Z,3.34
2022-12-22T14:52:45.484Z,3.36
2022-12-22T14:55:31.426Z,3.39
2022-12-22T14:58:12.629Z,3.28
2022-12-22T15:00:47.118Z,3.15
2022-12-22T15:03:25.152Z,3.26
2022-12-22T15:05:57.480Z,3.16
2022-12-22T15:08:43.107Z,3.03
2022-12-22T15:11:19.876Z,3.17
2022-12-22T15:13:54.329Z,3.16
2022-12-22T15:16:26.525Z,3.10
2022-12-22T15:18:58.836Z,3.15
2022-12-22T15:21:31.165Z,2.98
2022-12-22T15:24:03.845Z,3.11
2022-12-22T15:26:38.057Z,3.19
2022-12-22T15:29:10.161Z,3.16
2022-12-22T15:31:43.512Z,3.15
2022-12-22T15:34:31.029Z,3.24
2022-12-22T15:37:03.000Z,3.03
2022-12-22T15:39:34.986Z,3.14
2022-12-22T15:42:07.112Z,3.04
2022-12-22T15:44:39.534Z,3.20
2022-12-22T15:47:13.014Z,3.19
2022-12-22T15:49:45.111Z,3.00
2022-12-22T15:52:17.524Z,3.08
2022-12-22T15:54:49.669Z,3.07
2022-12-22T15:57:21.500Z,3.01
2022-12-22T15:59:53.498Z,3.01
2022-12-22T16:02:25.592Z,2.62
2022-12-22T16:04:57.896Z,2.93
2022-12-22T16:07:31.584Z,2.81
2022-12-22T16:10:04.685Z,2.53
2022-12-22T16:12:37.775Z,2.45
2022-12-22T16:15:14.209Z,2.77
2022-12-22T16:17:46.167Z,2.29
2022-12-22T16:20:18.155Z,2.67
2022-12-22T16:22:52.459Z,2.39
2022-12-22T16:25:34.268Z,2.83
2022-12-22T16:28:07.170Z,2.81
2022-12-22T16:30:39.694Z,2.77
2022-12-22T16:33:12.957Z,2.75
2022-12-22T16:35:45.094Z,2.74
2022-12-22T16:38:19.210Z,2.21
2022-12-22T16:40:53.750Z,2.60
2022-12-22T16:43:51.493Z,2.72
2022-12-22T16:46:24.291Z,2.72
2022-12-22T16:49:02.391Z,2.62
2022-12-22T16:51:34.943Z,2.52
2022-12-22T16:54:06.878Z,2.64
2022-12-22T16:56:39.445Z,2.57
2022-12-22T16:59:11.482Z,1.86
2022-12-22T17:01:52.667Z,2.61
2022-12-22T17:04:32.857Z,2.52
2022-12-22T17:07:06.823Z,2.34
2022-12-22T17:09:42.942Z,2.56
2022-12-22T17:12:35.151Z,2.53
2022-12-22T17:15:17.484Z,2.53
2022-12-22T17:17:49.625Z,2.33
2022-12-22T17:20:24.041Z,2.44
2022-12-22T17:22:59.989Z,2.31
2022-12-22T17:25:32.211Z,2.30
2022-12-22T17:28:04.397Z,2.31
2022-12-22T17:30:36.662Z,2.41
2022-12-22T17:33:16.216Z,2.25
2022-12-22T17:35:48.316Z,2.33
2022-12-22T17:38:22.560Z,2.36
2022-12-22T17:40:54.766Z,1.78
2022-12-22T17:43:26.700Z,2.08
2022-12-22T17:45:58.733Z,2.23
2022-12-22T17:48:30.705Z,2.37
2022-12-22T17:51:02.775Z,2.40
2022-12-22T17:53:40.599Z,2.10
2022-12-22T17:56:18.836Z,2.01
2022-12-22T17:58:51.067Z,2.54
2022-12-22T18:01:29.546Z,2.59
2022-12-22T18:04:01.730Z,2.57
2022-12-22T18:06:35.935Z,2.62
2022-12-22T18:09:15.576Z,2.58
2022-12-22T18:11:48.841Z,2.52
2022-12-22T18:14:23.242Z,2.67
2022-12-22T18:16:55.399Z,2.55
2022-12-22T18:19:27.403Z,2.10
2022-12-22T18:21:59.359Z,2.60
2022-12-22T18:24:31.276Z,2.71
2022-12-22T18:27:03.292Z,2.71
2022-12-22T18:29:35.364Z,2.70
2022-12-22T18:32:09.628Z,2.74
2022-12-22T18:34:41.915Z,2.76
2022-12-22T18:37:16.890Z,2.78
2022-12-22T18:39:48.891Z,2.80
2022-12-22T18:42:23.067Z,2.85
2022-12-22T18:44:55.031Z,2.74
2022-12-22T18:47:27.009Z,2.72
2022-12-22T18:50:03.160Z,2.86
2022-12-22T18:52:35.211Z,2.68
2022-12-22T18:55:15.836Z,2.95
2022-12-22T18:57:49.163Z,2.87
2022-12-22T19:00:28.087Z,2.90
2022-12-22T19:03:01.654Z,3.00
2022-12-22T19:05:33.982Z,3.01
2022-12-22T19:08:05.967Z,2.70
2022-12-22T19:10:41.384Z,2.99
2022-12-22T19:13:30.113Z,2.94
2022-12-22T19:16:02.530Z,2.77
2022-12-22T19:18:34.609Z,2.77
2022-12-22T19:21:06.811Z,2.67
2022-12-22T19:23:38.772Z,2.59
2022-12-22T19:26:22.805Z,2.78
2022-12-22T19:28:57.503Z,2.77
2022-12-22T19:31:32.762Z,2.69
2022-12-22T19:34:10.630Z,2.84
2022-12-22T19:36:42.849Z,2.51
2022-12-22T19:39:14.813Z,2.67
2022-12-22T19:41:55.059Z,2.90
2022-12-22T19:44:29.965Z,2.88
2022-12-22T19:47:03.191Z,2.93
2022-12-22T19:49:35.212Z,2.86
2022-12-22T19:52:09.932Z,2.55
2022-12-22T19:54:41.888Z,2.81
2022-12-22T19:57:20.656Z,2.84
2022-12-22T19:59:54.551Z,2.65
2022-12-22T20:02:32.617Z,3.05
2022-12-22T20:05:11.596Z,3.01
2022-12-22T20:07:47.008Z,3.01
2022-12-22T20:10:19.876Z,3.07
2022-12-22T20:12:54.579Z,3.08
2022-12-22T20:15:38.335Z,3.10
2022-12-22T20:18:22.450Z,3.11
2022-12-22T20:21:06.079Z,3.15
2022-12-22T20:23:39.522Z,2.96
2022-12-22T20:26:18.057Z,3.12
2022-12-22T20:28:50.250Z,2.75
2022-12-22T20:31:24.439Z,3.07
2022-12-22T20:33:56.515Z,3.09
2022-12-22T20:36:32.230Z,3.17
2022-12-22T20:39:12.892Z,3.20
2022-12-22T20:41:52.321Z,3.17
2022-12-22T20:44:25.339Z,3.21
2022-12-22T20:46:57.327Z,3.06
2022-12-22T20:49:29.326Z,3.22
2022-12-22T20:52:01.319Z,3.18
2022-12-22T20:54:33.329Z,3.05
2022-12-22T20:57:05.375Z,3.24
2022-12-22T20:59:37.548Z,3.27
2022-12-22T21:02:24.908Z,3.25
2022-12-22T21:04:57.072Z,3.36
2022-12-22T21:07:29.156Z,3.26
2022-12-22T21:10:01.109Z,3.39
2022-12-22T21:12:33.117Z,3.16
2022-12-22T21:15:05.576Z,3.47
2022-12-22T21:17:38.532Z,3.15
2022-12-22T21:20:19.759Z,3.15
2022-12-22T21:22:51.856Z,3.51
2022-12-22T21:25:25.236Z,3.52
2022-12-22T21:27:59.351Z,3.47
2022-12-22T21:30:31.573Z,3.48
2022-12-22T21:33:03.650Z,3.45
2022-12-22T21:35:38.181Z,3.51
2022-12-22T21:38:18.168Z,3.59
2022-12-22T21:40:53.869Z,3.53
2022-12-22T21:43:26.288Z,3.49
2022-12-22T21:45:58.346Z,3.32
2022-12-22T21:48:30.394Z,3.37
2022-12-22T21:51:02.514Z,3.57
2022-12-22T21:53:34.475Z,3.47
2022-12-22T21:56:17.019Z,3.48
2022-12-22T21:58:49.013Z,3.30
2022-12-22T22:01:21.157Z,3.58
2022-12-22T22:03:53.193Z,3.53
2022-12-22T22:06:25.218Z,3.64
2022-12-22T22:08:57.188Z,3.44
2022-12-22T22:11:29.168Z,3.56
2022-12-22T22:14:01.128Z,3.43
2022-12-22T22:16:33.204Z,3.48
2022-12-22T22:19:05.178Z,3.50
2022-12-22T22:21:37.144Z,3.59
2022-12-22T22:24:09.218Z,3.51
2022-12-22T22:26:41.519Z,3.20
2022-12-22T22:29:13.696Z,3.37
2022-12-22T22:31:45.822Z,3.30
2022-12-22T22:34:17.884Z,3.42
2022-12-22T22:36:51.614Z,3.48
2022-12-22T22:39:23.872Z,3.43
2022-12-22T22:41:55.903Z,3.37
2022-12-22T22:44:28.014Z,3.28
2022-12-22T22:47:00.514Z,3.27
2022-12-22T22:49:32.535Z,3.40
2022-12-22T22:52:04.644Z,3.21
2022-12-22T22:54:37.208Z,3.35
2022-12-22T22:57:09.157Z,3.33
2022-12-22T22:59:41.304Z,3.38
2022-12-22T23:02:15.118Z,3.41
2022-12-22T23:04:47.724Z,3.22
2022-12-22T23:07:19.723Z,3.27
2022-12-22T23:09:51.593Z,3.42
2022-12-22T23:12:23.544Z,3.03
2022-12-22T23:14:55.567Z,3.30
2022-12-22T23:17:27.730Z,3.01
2022-12-22T23:20:00.127Z,3.38
2022-12-22T23:22:32.110Z,3.37
2022-12-22T23:25:04.599Z,3.35
2022-12-22T23:27:36.538Z,3.39
2022-12-22T23:30:09.620Z,3.36
2022-12-22T23:32:41.583Z,3.37
2022-12-22T23:35:13.545Z,3.27
2022-12-22T23:37:45.481Z,2.83
2022-12-22T23:40:50.644Z,3.29
2022-12-22T23:43:12.346Z,3.43
2022-12-22T23:45:44.314Z,3.44
2022-12-22T23:48:16.912Z,3.35
2022-12-22T23:50:49.142Z,3.44
2022-12-22T23:53:21.163Z,3.11
2022-12-22T23:55:53.106Z,3.37
2022-12-22T23:58:25.336Z,3.23
